Bevent, Wisconsin
Current Conditions -  °F | °C
As of 2:35 AM on Tuesday 21 Oct 2014 (Local Time) from KCWA Reporting Station
Clear Clear  
Wind Chill:   Ceiling: Unl
Heat Index:   Visibility: 10mi
Dew Point:   Wind: 9mph
Humidity: 87%   Direction: 360°N
Pressure: 30.11"   Gusts: NA
Location:  44.8205°N, 89.392°W
Report Text: KCWA 210735Z AUTO 36008KT 10SM CLR 04/02 A3011 RMK AO2
Loading
Personal Weather Stations






























Interactive Weather Map
Tropical Storm Tracking
New forecast layout! Learn more

10-Day Weather Forecast

Advertisements
Track Severe Weather on mobile